createdAt,value
2023-05-16T00:02:23.021Z,15.60
2023-05-16T00:04:49.907Z,15.40
2023-05-16T00:07:17.636Z,15.40
2023-05-16T00:09:44.451Z,15.30
2023-05-16T00:12:11.432Z,15.30
2023-05-16T00:14:38.222Z,15.10
2023-05-16T00:17:11.613Z,15.10
2023-05-16T00:19:42.310Z,14.90
2023-05-16T00:22:09.157Z,14.90
2023-05-16T00:24:36.063Z,14.90
2023-05-16T00:27:04.155Z,14.90
2023-05-16T00:29:34.667Z,14.80
2023-05-16T00:32:01.462Z,14.90
2023-05-16T00:34:28.282Z,14.80
2023-05-16T00:36:55.068Z,14.80
2023-05-16T00:39:21.795Z,14.80
2023-05-16T00:41:48.655Z,14.70
2023-05-16T00:44:15.556Z,14.60
2023-05-16T00:46:42.476Z,14.50
2023-05-16T00:49:09.392Z,14.50
2023-05-16T00:51:36.873Z,14.40
2023-05-16T00:54:03.746Z,14.50
2023-05-16T00:56:30.522Z,14.40
2023-05-16T00:58:57.626Z,14.40
2023-05-16T01:01:25.605Z,14.30
2023-05-16T01:03:52.659Z,14.20
2023-05-16T01:06:19.896Z,14.10
2023-05-16T01:08:46.688Z,14.10
2023-05-16T01:11:23.201Z,14.00
2023-05-16T01:13:56.934Z,14.00
2023-05-16T01:16:31.464Z,14.00
2023-05-16T01:19:08.394Z,14.10
2023-05-16T01:21:57.675Z,14.10
2023-05-16T01:24:30.743Z,14.00
2023-05-16T01:26:59.150Z,13.90
2023-05-16T01:29:26.037Z,14.00
2023-05-16T01:31:52.899Z,14.10
2023-05-16T01:34:19.706Z,13.90
2023-05-16T01:37:12.837Z,13.90
2023-05-16T01:39:48.497Z,13.90
2023-05-16T01:42:15.982Z,13.90
2023-05-16T01:44:49.178Z,13.90
2023-05-16T01:47:17.379Z,13.80
2023-05-16T01:50:04.396Z,13.70
2023-05-16T01:52:34.445Z,13.80
2023-05-16T01:55:02.295Z,13.70
2023-05-16T01:57:29.302Z,13.60
2023-05-16T01:59:56.646Z,13.70
2023-05-16T02:02:23.422Z,13.70
2023-05-16T02:04:50.867Z,13.60
2023-05-16T02:07:17.839Z,13.50
2023-05-16T02:09:44.598Z,13.50
2023-05-16T02:12:11.328Z,13.60
2023-05-16T02:14:38.082Z,13.50
2023-05-16T02:17:04.945Z,13.50
2023-05-16T02:19:31.682Z,13.50
2023-05-16T02:21:58.403Z,13.40
2023-05-16T02:24:25.105Z,13.40
2023-05-16T02:26:51.800Z,13.40
2023-05-16T02:29:18.514Z,13.30
2023-05-16T02:31:45.554Z,13.30
2023-05-16T02:34:12.353Z,13.30
2023-05-16T02:36:39.142Z,13.20
2023-05-16T02:39:05.948Z,13.30
2023-05-16T02:41:33.190Z,13.20
2023-05-16T02:43:59.985Z,13.30
2023-05-16T02:46:27.373Z,13.30
2023-05-16T02:48:54.769Z,13.20
2023-05-16T02:51:22.761Z,13.20
2023-05-16T02:53:49.799Z,13.30
2023-05-16T02:56:16.609Z,13.20
2023-05-16T02:58:43.534Z,13.20
2023-05-16T03:01:10.359Z,13.20
2023-05-16T03:03:37.746Z,13.10
2023-05-16T03:06:04.658Z,13.20
2023-05-16T03:08:31.625Z,13.20
2023-05-16T03:10:58.403Z,13.20
2023-05-16T03:13:25.153Z,13.20
2023-05-16T03:15:51.911Z,13.20
2023-05-16T03:18:18.702Z,13.30
2023-05-16T03:20:45.467Z,13.40
2023-05-16T03:23:12.265Z,13.40
2023-05-16T03:25:39.006Z,13.30
2023-05-16T03:28:07.905Z,13.40
2023-05-16T03:30:34.974Z,13.40
2023-05-16T03:33:02.085Z,13.40
2023-05-16T03:35:29.128Z,13.40
2023-05-16T03:37:56.137Z,13.40
2023-05-16T03:40:22.885Z,13.30
2023-05-16T03:42:49.779Z,13.40
2023-05-16T03:45:16.632Z,13.40
2023-05-16T03:47:43.553Z,13.40
2023-05-16T03:50:10.707Z,13.40
2023-05-16T03:52:37.514Z,13.50
2023-05-16T03:55:05.202Z,13.60
2023-05-16T03:57:32.846Z,13.50
2023-05-16T03:59:59.907Z,13.50
2023-05-16T04:02:26.716Z,13.60
2023-05-16T04:04:53.642Z,13.60
2023-05-16T04:07:22.455Z,13.60
2023-05-16T04:09:51.299Z,13.70
2023-05-16T04:12:18.008Z,13.80
2023-05-16T04:14:44.697Z,13.80
2023-05-16T04:17:12.917Z,13.90
2023-05-16T04:19:39.811Z,13.90
2023-05-16T04:22:06.524Z,13.90
2023-05-16T04:24:33.824Z,14.00
2023-05-16T04:27:00.993Z,14.00
2023-05-16T04:29:27.793Z,14.10
2023-05-16T04:31:54.875Z,14.00
2023-05-16T04:34:23.227Z,13.90
2023-05-16T04:36:49.983Z,13.90
2023-05-16T04:39:17.288Z,13.90
2023-05-16T04:41:44.527Z,14.00
2023-05-16T04:44:11.508Z,14.00
2023-05-16T04:46:38.357Z,14.10
2023-05-16T04:49:05.340Z,14.00
2023-05-16T04:51:33.818Z,14.20
2023-05-16T04:54:01.013Z,14.20
2023-05-16T04:56:27.779Z,14.30
2023-05-16T04:58:54.786Z,14.40
2023-05-16T05:01:21.912Z,14.40
2023-05-16T05:03:49.038Z,14.40
2023-05-16T05:06:16.565Z,14.60
2023-05-16T05:08:43.382Z,14.50
2023-05-16T05:11:10.135Z,14.50
2023-05-16T05:13:36.967Z,14.50
2023-05-16T05:16:04.865Z,14.60
2023-05-16T05:18:31.769Z,14.60
2023-05-16T05:20:58.563Z,14.60
2023-05-16T05:23:25.781Z,14.70
2023-05-16T05:25:52.501Z,14.80
2023-05-16T05:28:19.216Z,15.20
2023-05-16T05:30:46.863Z,15.80
2023-05-16T05:33:16.469Z,15.80
2023-05-16T05:35:43.253Z,15.40
2023-05-16T05:38:09.987Z,15.20
2023-05-16T05:40:36.761Z,15.20
2023-05-16T05:43:03.646Z,15.30
2023-05-16T05:45:30.618Z,15.40
2023-05-16T05:47:57.612Z,15.60
2023-05-16T05:50:24.496Z,15.40
2023-05-16T05:52:51.341Z,15.40
2023-05-16T05:55:18.431Z,15.20
2023-05-16T05:57:45.149Z,15.20
2023-05-16T06:00:12.197Z,15.10
2023-05-16T06:02:39.226Z,15.20
2023-05-16T06:05:06.306Z,15.30
2023-05-16T06:07:33.046Z,15.20
2023-05-16T06:10:05.127Z,15.20
2023-05-16T06:12:32.141Z,15.20
2023-05-16T06:14:58.843Z,15.00
2023-05-16T06:17:25.655Z,15.00
2023-05-16T06:19:52.380Z,14.90
2023-05-16T06:22:19.093Z,14.90
2023-05-16T06:24:45.986Z,15.00
2023-05-16T06:27:12.731Z,15.00
2023-05-16T06:29:39.742Z,15.10
2023-05-16T06:32:06.721Z,15.10
2023-05-16T06:34:33.633Z,15.10
2023-05-16T06:37:00.883Z,15.00
2023-05-16T06:39:27.615Z,14.80
2023-05-16T06:41:56.392Z,14.90
2023-05-16T06:44:23.869Z,14.90
2023-05-16T06:46:50.653Z,14.80
2023-05-16T06:49:17.456Z,14.80
2023-05-16T06:51:44.234Z,14.80
2023-05-16T06:54:11.029Z,14.80
2023-05-16T06:56:37.838Z,14.80
2023-05-16T06:59:04.667Z,14.90
2023-05-16T07:01:31.665Z,14.80
2023-05-16T07:03:58.674Z,14.80
2023-05-16T07:06:25.596Z,14.70
2023-05-16T07:08:52.359Z,14.70
2023-05-16T07:11:19.108Z,14.70
2023-05-16T07:13:45.901Z,14.70
2023-05-16T07:16:12.899Z,14.70
2023-05-16T07:18:39.721Z,14.80
2023-05-16T07:21:06.551Z,14.80
2023-05-16T07:23:33.317Z,14.80
2023-05-16T07:26:00.120Z,14.70
2023-05-16T07:28:27.014Z,14.60
2023-05-16T07:30:54.766Z,14.60
2023-05-16T07:33:21.512Z,14.70
2023-05-16T07:35:48.248Z,14.60
2023-05-16T07:38:15.211Z,14.70
2023-05-16T07:40:42.000Z,14.60
2023-05-16T07:43:08.779Z,14.60
2023-05-16T07:45:35.556Z,14.60
2023-05-16T07:48:02.408Z,14.80
2023-05-16T07:50:29.238Z,14.70
2023-05-16T07:52:56.012Z,14.60
2023-05-16T07:55:23.519Z,14.60
2023-05-16T07:57:50.691Z,14.70
2023-05-16T08:00:17.887Z,14.70
2023-05-16T08:02:44.900Z,14.80
2023-05-16T08:05:11.778Z,14.70
2023-05-16T08:07:39.143Z,14.70
2023-05-16T08:10:06.145Z,14.70
2023-05-16T08:12:32.939Z,14.60
2023-05-16T08:14:59.768Z,14.70
2023-05-16T08:17:27.175Z,14.60
2023-05-16T08:19:54.304Z,14.70
2023-05-16T08:22:21.152Z,14.70
2023-05-16T08:24:47.964Z,14.50
2023-05-16T08:27:14.805Z,14.60
2023-05-16T08:29:41.823Z,14.60
2023-05-16T08:32:09.017Z,14.60
2023-05-16T08:34:36.745Z,14.70
2023-05-16T08:37:03.538Z,14.50
2023-05-16T08:39:30.873Z,14.50
2023-05-16T08:41:58.921Z,14.60
2023-05-16T08:44:26.103Z,14.60
2023-05-16T08:46:53.417Z,14.70
2023-05-16T08:49:20.908Z,14.50
2023-05-16T08:51:48.746Z,14.40
2023-05-16T08:54:16.289Z,14.70
2023-05-16T08:56:44.661Z,14.70
2023-05-16T08:59:12.523Z,14.90
2023-05-16T09:01:39.482Z,15.10
2023-05-16T09:04:08.407Z,15.50
2023-05-16T09:06:36.799Z,15.50
2023-05-16T09:09:04.721Z,15.60
2023-05-16T09:11:31.493Z,15.70
2023-05-16T09:13:58.332Z,15.90
2023-05-16T09:16:25.308Z,16.00
2023-05-16T09:18:57.163Z,15.90
2023-05-16T09:21:34.264Z,16.40
2023-05-16T09:24:04.997Z,16.20
2023-05-16T09:26:36.501Z,16.00
2023-05-16T09:29:11.032Z,15.70
2023-05-16T09:31:38.798Z,15.70
2023-05-16T09:34:09.551Z,15.40
2023-05-16T09:36:37.120Z,15.40
2023-05-16T09:39:04.141Z,15.20
2023-05-16T09:41:34.768Z,15.30
2023-05-16T09:44:04.071Z,15.20
2023-05-16T09:46:31.543Z,15.10
2023-05-16T09:48:58.402Z,15.10
2023-05-16T09:51:25.189Z,15.30
2023-05-16T09:53:52.146Z,15.30
2023-05-16T09:56:19.024Z,15.60
2023-05-16T09:58:47.357Z,15.70
2023-05-16T10:01:14.217Z,15.60
2023-05-16T10:03:41.874Z,15.60
2023-05-16T10:06:09.230Z,15.40
2023-05-16T10:08:36.900Z,15.40
2023-05-16T10:11:06.904Z,15.40
2023-05-16T10:13:36.863Z,15.20
2023-05-16T10:16:08.473Z,15.10
2023-05-16T10:18:35.930Z,14.90
2023-05-16T10:21:05.557Z,14.70
2023-05-16T10:23:33.814Z,14.90
2023-05-16T10:26:02.585Z,14.90
2023-05-16T10:28:29.678Z,15.00
2023-05-16T10:30:56.420Z,15.40
2023-05-16T10:33:23.257Z,15.50
2023-05-16T10:35:51.097Z,15.40
2023-05-16T10:38:18.468Z,15.40
2023-05-16T10:40:45.620Z,15.40
2023-05-16T10:43:22.825Z,15.40
2023-05-16T10:45:54.650Z,15.30
2023-05-16T10:48:29.022Z,15.10
2023-05-16T10:50:55.899Z,14.90
2023-05-16T10:53:23.993Z,14.90
2023-05-16T10:55:59.930Z,14.60
2023-05-16T10:58:38.683Z,14.60
2023-05-16T11:01:24.361Z,14.70
2023-05-16T11:03:57.862Z,14.60
2023-05-16T11:06:34.637Z,14.50
2023-05-16T11:09:10.556Z,14.50
2023-05-16T11:11:50.154Z,14.40
2023-05-16T11:14:21.407Z,14.40
2023-05-16T11:16:48.733Z,14.70
2023-05-16T11:19:28.199Z,14.80
2023-05-16T11:22:10.190Z,14.90
2023-05-16T11:24:38.235Z,14.90
2023-05-16T11:27:05.937Z,14.80
2023-05-16T11:29:34.277Z,14.70
2023-05-16T11:32:05.330Z,14.60
2023-05-16T11:34:35.810Z,14.60
2023-05-16T11:37:02.692Z,14.60
2023-05-16T11:39:30.676Z,14.60
2023-05-16T11:41:58.719Z,14.70
2023-05-16T11:44:26.246Z,14.70
2023-05-16T11:46:53.130Z,14.70
2023-05-16T11:49:20.147Z,14.80
2023-05-16T11:51:47.265Z,14.80
2023-05-16T11:54:14.121Z,15.10
2023-05-16T11:56:41.417Z,15.10
2023-05-16T11:59:08.377Z,15.20
2023-05-16T12:01:36.674Z,15.30
2023-05-16T12:04:13.809Z,15.30
2023-05-16T12:06:41.167Z,15.30
2023-05-16T12:09:11.649Z,15.30
2023-05-16T12:11:38.689Z,15.40
2023-05-16T12:14:06.942Z,15.40
2023-05-16T12:16:34.321Z,15.60
2023-05-16T12:19:02.141Z,15.80
2023-05-16T12:21:28.964Z,16.00
2023-05-16T12:23:57.471Z,16.60
2023-05-16T12:26:28.330Z,17.70
2023-05-16T12:28:58.042Z,19.00
2023-05-16T12:31:31.803Z,18.10
2023-05-16T12:33:59.488Z,17.00
2023-05-16T12:36:26.571Z,16.40
2023-05-16T12:38:53.695Z,16.20
2023-05-16T12:41:23.716Z,16.20
2023-05-16T12:43:50.610Z,16.70
2023-05-16T12:46:19.843Z,18.40
2023-05-16T12:48:48.146Z,20.90
2023-05-16T12:51:15.868Z,22.60
2023-05-16T12:53:49.162Z,22.20
2023-05-16T12:56:21.690Z,20.30
2023-05-16T12:58:51.460Z,18.90
2023-05-16T13:01:18.332Z,19.20
2023-05-16T13:03:45.248Z,19.90
2023-05-16T13:06:12.097Z,19.10
2023-05-16T13:08:38.866Z,18.70
2023-05-16T13:11:06.558Z,18.50
2023-05-16T13:13:36.325Z,18.30
2023-05-16T13:16:04.336Z,18.30
2023-05-16T13:18:31.646Z,18.10
2023-05-16T13:20:58.578Z,18.00
2023-05-16T13:23:25.458Z,18.50
2023-05-16T13:25:53.154Z,18.90
2023-05-16T13:28:19.926Z,18.70
2023-05-16T13:30:46.953Z,18.30
2023-05-16T13:33:13.762Z,17.60
2023-05-16T13:35:40.621Z,17.40
2023-05-16T13:38:07.414Z,17.10
2023-05-16T13:40:34.570Z,17.00
2023-05-16T13:43:01.714Z,17.20
2023-05-16T13:45:29.049Z,17.50
2023-05-16T13:47:56.113Z,17.50
2023-05-16T13:50:22.976Z,17.50
2023-05-16T13:52:49.729Z,17.70
2023-05-16T13:55:16.579Z,18.00
2023-05-16T13:57:43.339Z,18.10
2023-05-16T14:02:43.220Z,17.50
2023-05-16T14:05:10.283Z,17.60
2023-05-16T14:07:37.056Z,17.20
2023-05-16T14:10:05.097Z,17.10
2023-05-16T14:12:32.340Z,17.00
2023-05-16T14:14:59.679Z,17.30
2023-05-16T14:17:27.028Z,17.40
2023-05-16T14:19:53.963Z,17.60
2023-05-16T14:22:20.753Z,17.50
2023-05-16T14:24:47.538Z,17.40
2023-05-16T14:27:15.393Z,17.30
2023-05-16T14:29:42.398Z,17.40
2023-05-16T14:32:11.240Z,17.40
2023-05-16T14:34:38.139Z,17.20
2023-05-16T14:37:05.108Z,17.20
2023-05-16T14:39:32.026Z,17.30
2023-05-16T14:41:58.764Z,17.40
2023-05-16T14:44:25.613Z,17.50
2023-05-16T14:46:52.408Z,17.50
2023-05-16T14:49:19.205Z,17.60
2023-05-16T14:51:49.308Z,17.80
2023-05-16T14:54:17.056Z,18.00
2023-05-16T14:56:44.622Z,18.20
2023-05-16T14:59:11.408Z,18.40
2023-05-16T15:01:38.215Z,18.30
2023-05-16T15:04:05.119Z,18.40
2023-05-16T15:06:31.867Z,18.50
2023-05-16T15:08:58.617Z,18.10
2023-05-16T15:11:26.088Z,17.50
2023-05-16T15:13:53.149Z,17.20
2023-05-16T15:16:20.052Z,16.80
2023-05-16T15:18:46.909Z,16.20
2023-05-16T15:21:13.787Z,15.60
2023-05-16T15:23:40.581Z,15.30
2023-05-16T15:26:07.359Z,15.10
2023-05-16T15:28:34.116Z,15.00
2023-05-16T15:31:00.937Z,14.80
2023-05-16T15:33:27.679Z,14.80
2023-05-16T15:35:54.489Z,14.60
2023-05-16T15:38:21.353Z,14.60
2023-05-16T15:40:52.686Z,14.70
2023-05-16T15:43:24.906Z,14.60
2023-05-16T15:45:52.108Z,14.60
2023-05-16T15:48:18.993Z,14.80
2023-05-16T15:50:45.790Z,14.90
2023-05-16T15:53:12.535Z,14.80
2023-05-16T15:55:39.352Z,14.90
2023-05-16T15:58:06.350Z,14.90
2023-05-16T16:00:33.217Z,14.90
2023-05-16T16:03:00.042Z,15.00
2023-05-16T16:05:27.168Z,14.90
2023-05-16T16:07:54.179Z,15.20
2023-05-16T16:10:22.671Z,15.10
2023-05-16T16:13:02.352Z,15.10
2023-05-16T16:15:32.728Z,15.00
2023-05-16T16:18:00.660Z,15.10
2023-05-16T16:20:27.835Z,15.10
2023-05-16T16:22:54.620Z,15.20
2023-05-16T16:25:21.449Z,15.20
2023-05-16T16:27:48.399Z,15.20
2023-05-16T16:30:15.227Z,15.20
2023-05-16T16:32:42.126Z,15.10
2023-05-16T16:35:08.996Z,15.20
2023-05-16T16:37:35.836Z,15.10
2023-05-16T16:40:02.720Z,15.00
2023-05-16T16:42:30.543Z,14.90
2023-05-16T16:44:57.590Z,15.00
2023-05-16T16:47:25.182Z,15.00
2023-05-16T16:49:52.050Z,14.90
2023-05-16T16:52:18.816Z,14.90
2023-05-16T16:54:45.640Z,14.90
2023-05-16T16:57:12.517Z,14.80
2023-05-16T16:59:40.739Z,14.50
2023-05-16T17:02:07.836Z,14.50
2023-05-16T17:04:35.252Z,14.50
2023-05-16T17:07:02.337Z,14.50
2023-05-16T17:09:29.081Z,14.40
2023-05-16T17:11:56.357Z,14.50
2023-05-16T17:14:23.760Z,14.40
2023-05-16T17:16:50.777Z,14.50
2023-05-16T17:19:17.628Z,14.60
2023-05-16T17:21:44.583Z,14.60
2023-05-16T17:24:11.325Z,14.60
2023-05-16T17:26:38.364Z,14.70
2023-05-16T17:29:06.014Z,14.70
2023-05-16T17:31:32.901Z,14.80
2023-05-16T17:33:59.755Z,14.80
2023-05-16T17:36:26.583Z,14.80
2023-05-16T17:38:53.478Z,14.80
2023-05-16T17:41:20.619Z,14.90
2023-05-16T17:43:47.499Z,14.80
2023-05-16T17:46:14.547Z,14.80
2023-05-16T17:48:42.380Z,14.80
2023-05-16T17:51:09.632Z,14.80
2023-05-16T17:53:37.610Z,14.80
2023-05-16T17:56:05.027Z,14.80
2023-05-16T17:58:31.797Z,14.80
2023-05-16T18:00:58.570Z,14.60
2023-05-16T18:03:25.395Z,14.60
2023-05-16T18:05:52.319Z,14.50
2023-05-16T18:08:19.234Z,14.70
2023-05-16T18:10:52.305Z,14.60
2023-05-16T18:13:19.985Z,14.60
2023-05-16T18:15:46.944Z,14.60
2023-05-16T18:18:13.799Z,14.50
2023-05-16T18:20:40.918Z,14.60
2023-05-16T18:23:08.601Z,14.60
2023-05-16T18:25:35.363Z,14.60
2023-05-16T18:28:02.157Z,14.60
2023-05-16T18:30:28.924Z,14.60
2023-05-16T18:32:55.778Z,14.60
2023-05-16T18:35:23.727Z,14.40
2023-05-16T18:37:50.800Z,14.50
2023-05-16T18:40:18.033Z,14.50
2023-05-16T18:42:44.845Z,14.40
2023-05-16T18:45:11.756Z,14.40
2023-05-16T18:47:38.703Z,14.40
2023-05-16T18:50:06.050Z,14.50
2023-05-16T18:52:35.341Z,14.50
2023-05-16T18:55:02.207Z,14.50
2023-05-16T18:57:29.030Z,14.50
2023-05-16T18:59:58.316Z,14.50
2023-05-16T19:02:37.975Z,14.50
2023-05-16T19:05:09.106Z,14.40
2023-05-16T19:07:35.992Z,14.40
2023-05-16T19:10:03.761Z,14.30
2023-05-16T19:12:30.986Z,14.30
2023-05-16T19:14:57.791Z,14.20
2023-05-16T19:17:24.695Z,14.10
